Tonos — V7EF2 — position and weather

sailwx.info

Track history (hours):
 
Tides and Currents Weather Stations Pressure Air Temp Water Temp Dewpoint Dewpoint Depression Visibility Wind Speed Wind Dir Waves Ship Positions

Tonos

Last reported at 2017-Jul-23 07:25 UTC. Time now 2017-Jul-25 10:27 UTC.
Position N 40°01' E 026°12'.

Length 276 m; draft 8.5 m.

Type: Tanker. MMSI: 538006541.

Date/timePositionNaut miles runAvg speedWind from/ knotsBaromVisibWave heightAir tempDewpointWater temp
2017-Jul-23 07:25N 40°01' E 026°12'12 6.1
2017-Jul-23 05:24N 39°56' E 025°57'9 7.9
2017-Jul-23 04:16N 39°50' E 025°49'162 6.2
2017-Jul-22 02:04N 37°34' E 023°54'112.1
2017-Jul-22 01:58N 37°35' E 023°53'511.7
2017-Jul-22 01:30N 37°37' E 023°46'611.7
2017-Jul-22 01:00N 37°41' E 023°41'611.8
2017-Jul-22 00:30N 37°46' E 023°38'510.8
2017-Jul-22 00:00N 37°50' E 023°33'612.6
2017-Jul-21 23:30N 37°51' E 023°25'713.6
2017-Jul-21 23:00N 37°52' E 023°17'612.6
2017-Jul-21 22:30N 37°54' E 023°09'3 0.1
2017-Jul-19 19:34N 37°55' E 023°05'0 0.1
2017-Jul-19 19:23N 37°55' E 023°05'1 1.3
2017-Jul-19 18:59N 37°54' E 023°05'1 2.4
2017-Jul-19 18:29N 37°53' E 023°06'510.1
2017-Jul-19 18:00N 37°53' E 023°12'611.8
2017-Jul-19 17:30N 37°51' E 023°19'510.9
2017-Jul-19 17:00N 37°51' E 023°26'510.1
2017-Jul-19 16:30N 37°49' E 023°32'611.3
2017-Jul-19 16:00N 37°49' E 023°39'612.4
2017-Jul-19 15:30N 37°44' E 023°43'713.1
2017-Jul-19 15:00N 37°37' E 023°46'32712.1
2017-Jul-18 12:00N 33°55' E 028°42'1311.7
2017-Jul-18 10:52N 33°47' E 028°54'1411.8
2017-Jul-18 09:40N 33°38' E 029°07'212.5
2017-Jul-18 09:30N 33°36' E 029°09'612.0
2017-Jul-18 09:00N 33°33' E 029°15'1112.2
2017-Jul-18 08:09N 33°26' E 029°25'212.3
2017-Jul-18 08:00N 33°25' E 029°26'1112.4
2017-Jul-18 07:06N 33°18' E 029°37'112.5
2017-Jul-18 07:00N 33°17' E 029°38'612.5
2017-Jul-18 06:30N 33°13' E 029°44'812.5
2017-Jul-18 05:50N 33°08' E 029°51'412.5
2017-Jul-18 05:30N 33°05' E 029°55'1812.6
2017-Jul-18 04:06N 32°54' E 030°12'112.7
2017-Jul-18 04:00N 32°54' E 030°13'612.9
2017-Jul-18 03:30N 32°50' E 030°19'713.0
2017-Jul-18 03:00N 32°45' E 030°25'613.1
2017-Jul-18 02:30N 32°41' E 030°31'713.1
2017-Jul-18 02:00N 32°37' E 030°37'713.2
2017-Jul-18 01:30N 32°33' E 030°43'713.2
2017-Jul-18 00:59N 32°29' E 030°49'2513.0
2017-Jul-17 23:05N 32°13' E 031°12'213.1
2017-Jul-17 22:57N 32°12' E 031°13'612.9
2017-Jul-17 22:30N 32°08' E 031°19'1312.7
2017-Jul-17 21:28N 32°00' E 031°31'712.4
2017-Jul-17 20:56N 31°56' E 031°37'612.3
2017-Jul-17 20:27N 31°52' E 031°43'512.2
2017-Jul-17 20:00N 31°49' E 031°48'612.1
2017-Jul-17 19:30N 31°47' E 031°54'712.4
2017-Jul-17 18:56N 31°43' E 032°01'512.5
2017-Jul-17 18:30N 31°39' E 032°06'612.4
2017-Jul-17 18:00N 31°35' E 032°11'612.2
2017-Jul-17 17:30N 31°31' E 032°17'612.2
2017-Jul-17 17:00N 31°28' E 032°23'510.0
2017-Jul-17 16:30N 31°23' E 032°23'611.4
2017-Jul-17 16:00N 31°17' E 032°22'4 8.1
2017-Jul-17 15:30N 31°13' E 032°21'5 7.0
2017-Jul-17 14:48N 31°08' E 032°19'3 8.9
2017-Jul-17 14:30N 31°06' E 032°19'5 9.0
2017-Jul-17 13:59N 31°01' E 032°19'6 8.8
2017-Jul-17 13:16N 30°55' E 032°19'2 8.6
2017-Jul-17 13:00N 30°53' E 032°19'  
Track history (hours):
 
Tides and Currents Weather Stations Pressure Air Temp Water Temp Dewpoint Dewpoint Depression Visibility Wind Speed Wind Dir Waves Ship Positions

Tonos

Last reported at 2017-Jul-23 07:25 UTC. Time now 2017-Jul-25 10:27 UTC.
Position N 40°01' E 026°12'.

Length 276 m; draft 8.5 m.

Type: Tanker. MMSI: 538006541.

Date/timePositionNaut miles runAvg speedWind from/ knotsBaromVisibWave heightAir tempDewpointWater temp
2017-Jul-23 07:25N 40°01' E 026°12'12 6.1
2017-Jul-23 05:24N 39°56' E 025°57'9 7.9
2017-Jul-23 04:16N 39°50' E 025°49'162 6.2
2017-Jul-22 02:04N 37°34' E 023°54'112.1
2017-Jul-22 01:58N 37°35' E 023°53'511.7
2017-Jul-22 01:30N 37°37' E 023°46'611.7
2017-Jul-22 01:00N 37°41' E 023°41'611.8
2017-Jul-22 00:30N 37°46' E 023°38'510.8
2017-Jul-22 00:00N 37°50' E 023°33'612.6
2017-Jul-21 23:30N 37°51' E 023°25'713.6
2017-Jul-21 23:00N 37°52' E 023°17'612.6
2017-Jul-21 22:30N 37°54' E 023°09'3 0.1
2017-Jul-19 19:34N 37°55' E 023°05'0 0.1
2017-Jul-19 19:23N 37°55' E 023°05'1 1.3
2017-Jul-19 18:59N 37°54' E 023°05'1 2.4
2017-Jul-19 18:29N 37°53' E 023°06'510.1
2017-Jul-19 18:00N 37°53' E 023°12'611.8
2017-Jul-19 17:30N 37°51' E 023°19'510.9
2017-Jul-19 17:00N 37°51' E 023°26'510.1
2017-Jul-19 16:30N 37°49' E 023°32'611.3
2017-Jul-19 16:00N 37°49' E 023°39'612.4
2017-Jul-19 15:30N 37°44' E 023°43'713.1
2017-Jul-19 15:00N 37°37' E 023°46'32712.1
2017-Jul-18 12:00N 33°55' E 028°42'1311.7
2017-Jul-18 10:52N 33°47' E 028°54'1411.8
2017-Jul-18 09:40N 33°38' E 029°07'212.5
2017-Jul-18 09:30N 33°36' E 029°09'612.0
2017-Jul-18 09:00N 33°33' E 029°15'1112.2
2017-Jul-18 08:09N 33°26' E 029°25'212.3
2017-Jul-18 08:00N 33°25' E 029°26'1112.4
2017-Jul-18 07:06N 33°18' E 029°37'112.5
2017-Jul-18 07:00N 33°17' E 029°38'612.5
2017-Jul-18 06:30N 33°13' E 029°44'812.5
2017-Jul-18 05:50N 33°08' E 029°51'412.5
2017-Jul-18 05:30N 33°05' E 029°55'1812.6
2017-Jul-18 04:06N 32°54' E 030°12'112.7
2017-Jul-18 04:00N 32°54' E 030°13'612.9
2017-Jul-18 03:30N 32°50' E 030°19'713.0
2017-Jul-18 03:00N 32°45' E 030°25'613.1
2017-Jul-18 02:30N 32°41' E 030°31'713.1
2017-Jul-18 02:00N 32°37' E 030°37'713.2
2017-Jul-18 01:30N 32°33' E 030°43'713.2
2017-Jul-18 00:59N 32°29' E 030°49'2513.0
2017-Jul-17 23:05N 32°13' E 031°12'213.1
2017-Jul-17 22:57N 32°12' E 031°13'612.9
2017-Jul-17 22:30N 32°08' E 031°19'1312.7
2017-Jul-17 21:28N 32°00' E 031°31'712.4
2017-Jul-17 20:56N 31°56' E 031°37'612.3
2017-Jul-17 20:27N 31°52' E 031°43'512.2
2017-Jul-17 20:00N 31°49' E 031°48'612.1
2017-Jul-17 19:30N 31°47' E 031°54'712.4
2017-Jul-17 18:56N 31°43' E 032°01'512.5
2017-Jul-17 18:30N 31°39' E 032°06'612.4
2017-Jul-17 18:00N 31°35' E 032°11'612.2
2017-Jul-17 17:30N 31°31' E 032°17'612.2
2017-Jul-17 17:00N 31°28' E 032°23'510.0
2017-Jul-17 16:30N 31°23' E 032°23'611.4
2017-Jul-17 16:00N 31°17' E 032°22'4 8.1
2017-Jul-17 15:30N 31°13' E 032°21'5 7.0
2017-Jul-17 14:48N 31°08' E 032°19'3 8.9
2017-Jul-17 14:30N 31°06' E 032°19'5 9.0
2017-Jul-17 13:59N 31°01' E 032°19'6 8.8
2017-Jul-17 13:16N 30°55' E 032°19'2 8.6
2017-Jul-17 13:00N 30°53' E 032°19'  

Dump ship's entire track history